sensor_id;sensor_type;location;lat;lon;timestamp;P1;durP1;ratioP1;P2;durP2;ratioP2
20340;SDS011;10328;50.042;8.238;2022-07-22T00:00:52;9.37;;;5.90;;
20340;SDS011;10328;50.042;8.238;2022-07-22T00:03:19;12.40;;;7.57;;
20340;SDS011;10328;50.042;8.238;2022-07-22T00:05:46;13.90;;;6.80;;
20340;SDS011;10328;50.042;8.238;2022-07-22T00:08:12;9.90;;;6.73;;
20340;SDS011;10328;50.042;8.238;2022-07-22T00:10:39;11.00;;;6.90;;
20340;SDS011;10328;50.042;8.238;2022-07-22T00:13:07;9.73;;;6.20;;
20340;SDS011;10328;50.042;8.238;2022-07-22T00:15:34;11.50;;;6.70;;
20340;SDS011;10328;50.042;8.238;2022-07-22T00:18:01;10.23;;;6.57;;
20340;SDS011;10328;50.042;8.238;2022-07-22T00:20:27;11.60;;;7.00;;
20340;SDS011;10328;50.042;8.238;2022-07-22T00:22:54;11.50;;;6.53;;
20340;SDS011;10328;50.042;8.238;2022-07-22T00:25:21;9.37;;;6.60;;
20340;SDS011;10328;50.042;8.238;2022-07-22T00:27:48;13.27;;;7.67;;
20340;SDS011;10328;50.042;8.238;2022-07-22T00:30:15;14.10;;;6.97;;
20340;SDS011;10328;50.042;8.238;2022-07-22T00:32:41;12.80;;;7.00;;
20340;SDS011;10328;50.042;8.238;2022-07-22T00:35:08;12.57;;;7.40;;
20340;SDS011;10328;50.042;8.238;2022-07-22T00:37:35;9.40;;;6.80;;
20340;SDS011;10328;50.042;8.238;2022-07-22T00:40:01;10.03;;;6.10;;
20340;SDS011;10328;50.042;8.238;2022-07-22T00:42:29;8.97;;;6.33;;
20340;SDS011;10328;50.042;8.238;2022-07-22T00:44:56;12.23;;;7.00;;
20340;SDS011;10328;50.042;8.238;2022-07-22T00:47:23;8.93;;;6.80;;
20340;SDS011;10328;50.042;8.238;2022-07-22T00:49:50;8.40;;;6.43;;
20340;SDS011;10328;50.042;8.238;2022-07-22T00:52:17;16.07;;;7.50;;
20340;SDS011;10328;50.042;8.238;2022-07-22T00:54:45;10.83;;;6.60;;
20340;SDS011;10328;50.042;8.238;2022-07-22T00:57:12;11.37;;;7.60;;
20340;SDS011;10328;50.042;8.238;2022-07-22T00:59:38;13.60;;;7.60;;
20340;SDS011;10328;50.042;8.238;2022-07-22T01:02:05;11.87;;;7.30;;
20340;SDS011;10328;50.042;8.238;2022-07-22T01:04:32;11.47;;;6.93;;
20340;SDS011;10328;50.042;8.238;2022-07-22T01:06:59;11.53;;;6.77;;
20340;SDS011;10328;50.042;8.238;2022-07-22T01:09:26;10.60;;;7.50;;
20340;SDS011;10328;50.042;8.238;2022-07-22T01:11:53;11.33;;;7.03;;
20340;SDS011;10328;50.042;8.238;2022-07-22T01:14:19;11.07;;;7.27;;
20340;SDS011;10328;50.042;8.238;2022-07-22T01:16:46;9.17;;;6.80;;
20340;SDS011;10328;50.042;8.238;2022-07-22T01:19:15;9.83;;;7.03;;
20340;SDS011;10328;50.042;8.238;2022-07-22T01:21:42;10.37;;;6.50;;
20340;SDS011;10328;50.042;8.238;2022-07-22T01:24:08;10.57;;;6.57;;
20340;SDS011;10328;50.042;8.238;2022-07-22T01:26:35;10.87;;;7.07;;
20340;SDS011;10328;50.042;8.238;2022-07-22T01:29:02;11.07;;;7.30;;
20340;SDS011;10328;50.042;8.238;2022-07-22T01:31:29;12.97;;;7.70;;
20340;SDS011;10328;50.042;8.238;2022-07-22T01:33:56;11.23;;;6.93;;
20340;SDS011;10328;50.042;8.238;2022-07-22T01:36:23;11.60;;;7.83;;
20340;SDS011;10328;50.042;8.238;2022-07-22T01:38:49;11.73;;;7.60;;
20340;SDS011;10328;50.042;8.238;2022-07-22T01:41:16;11.63;;;7.47;;
20340;SDS011;10328;50.042;8.238;2022-07-22T01:43:43;12.90;;;7.40;;
20340;SDS011;10328;50.042;8.238;2022-07-22T01:46:10;11.10;;;7.10;;
20340;SDS011;10328;50.042;8.238;2022-07-22T01:48:36;10.50;;;7.30;;
20340;SDS011;10328;50.042;8.238;2022-07-22T01:51:03;14.70;;;7.37;;
20340;SDS011;10328;50.042;8.238;2022-07-22T01:53:30;11.17;;;7.83;;
20340;SDS011;10328;50.042;8.238;2022-07-22T01:55:57;13.40;;;7.53;;
20340;SDS011;10328;50.042;8.238;2022-07-22T01:58:23;11.00;;;7.47;;
20340;SDS011;10328;50.042;8.238;2022-07-22T02:00:51;12.33;;;7.57;;
20340;SDS011;10328;50.042;8.238;2022-07-22T02:03:18;11.60;;;7.30;;
20340;SDS011;10328;50.042;8.238;2022-07-22T02:05:45;12.10;;;7.43;;
20340;SDS011;10328;50.042;8.238;2022-07-22T02:08:12;13.40;;;7.97;;
20340;SDS011;10328;50.042;8.238;2022-07-22T02:10:39;10.70;;;7.20;;
20340;SDS011;10328;50.042;8.238;2022-07-22T02:13:06;10.87;;;7.23;;
20340;SDS011;10328;50.042;8.238;2022-07-22T02:15:33;11.30;;;6.77;;
20340;SDS011;10328;50.042;8.238;2022-07-22T02:18:00;10.63;;;7.43;;
20340;SDS011;10328;50.042;8.238;2022-07-22T02:20:34;10.97;;;7.30;;
20340;SDS011;10328;50.042;8.238;2022-07-22T02:23:01;10.63;;;6.67;;
20340;SDS011;10328;50.042;8.238;2022-07-22T02:25:28;10.10;;;6.87;;
20340;SDS011;10328;50.042;8.238;2022-07-22T02:27:54;10.70;;;6.63;;
20340;SDS011;10328;50.042;8.238;2022-07-22T02:30:21;11.13;;;7.30;;
20340;SDS011;10328;50.042;8.238;2022-07-22T02:32:48;10.83;;;7.23;;
20340;SDS011;10328;50.042;8.238;2022-07-22T02:35:15;11.60;;;7.50;;
20340;SDS011;10328;50.042;8.238;2022-07-22T02:37:42;10.13;;;7.30;;
20340;SDS011;10328;50.042;8.238;2022-07-22T02:40:09;13.47;;;7.27;;
20340;SDS011;10328;50.042;8.238;2022-07-22T02:42:36;11.27;;;7.13;;
20340;SDS011;10328;50.042;8.238;2022-07-22T02:45:03;12.47;;;7.07;;
20340;SDS011;10328;50.042;8.238;2022-07-22T02:47:31;12.73;;;7.43;;
20340;SDS011;10328;50.042;8.238;2022-07-22T02:49:57;10.10;;;7.03;;
20340;SDS011;10328;50.042;8.238;2022-07-22T02:52:24;11.83;;;7.37;;
20340;SDS011;10328;50.042;8.238;2022-07-22T02:54:51;10.87;;;7.70;;
20340;SDS011;10328;50.042;8.238;2022-07-22T02:57:17;9.90;;;7.43;;
20340;SDS011;10328;50.042;8.238;2022-07-22T02:59:44;10.13;;;7.30;;
20340;SDS011;10328;50.042;8.238;2022-07-22T03:02:11;10.50;;;7.00;;
20340;SDS011;10328;50.042;8.238;2022-07-22T03:04:38;11.27;;;7.13;;
20340;SDS011;10328;50.042;8.238;2022-07-22T03:07:04;8.87;;;6.80;;
20340;SDS011;10328;50.042;8.238;2022-07-22T03:09:31;11.83;;;7.57;;
20340;SDS011;10328;50.042;8.238;2022-07-22T03:11:58;10.63;;;7.20;;
20340;SDS011;10328;50.042;8.238;2022-07-22T03:14:24;11.43;;;7.07;;
20340;SDS011;10328;50.042;8.238;2022-07-22T03:16:51;10.37;;;6.90;;
20340;SDS011;10328;50.042;8.238;2022-07-22T03:19:18;10.13;;;6.40;;
20340;SDS011;10328;50.042;8.238;2022-07-22T03:21:44;11.77;;;7.07;;
20340;SDS011;10328;50.042;8.238;2022-07-22T03:24:11;9.97;;;6.73;;
20340;SDS011;10328;50.042;8.238;2022-07-22T03:26:38;9.00;;;6.77;;
20340;SDS011;10328;50.042;8.238;2022-07-22T03:29:04;9.33;;;6.60;;
20340;SDS011;10328;50.042;8.238;2022-07-22T03:31:31;11.83;;;7.03;;
20340;SDS011;10328;50.042;8.238;2022-07-22T03:33:58;10.37;;;6.50;;
20340;SDS011;10328;50.042;8.238;2022-07-22T03:36:27;10.13;;;6.70;;
20340;SDS011;10328;50.042;8.238;2022-07-22T03:38:55;9.57;;;6.80;;
20340;SDS011;10328;50.042;8.238;2022-07-22T03:41:22;8.13;;;6.53;;
20340;SDS011;10328;50.042;8.238;2022-07-22T03:43:49;12.00;;;7.37;;
20340;SDS011;10328;50.042;8.238;2022-07-22T03:46:16;9.70;;;7.13;;
20340;SDS011;10328;50.042;8.238;2022-07-22T03:48:43;11.17;;;6.23;;
20340;SDS011;10328;50.042;8.238;2022-07-22T03:51:09;11.57;;;6.70;;
20340;SDS011;10328;50.042;8.238;2022-07-22T03:53:36;10.67;;;6.83;;
20340;SDS011;10328;50.042;8.238;2022-07-22T03:56:03;8.50;;;6.37;;
20340;SDS011;10328;50.042;8.238;2022-07-22T03:58:30;9.60;;;6.73;;
20340;SDS011;10328;50.042;8.238;2022-07-22T04:00:57;9.47;;;6.40;;
20340;SDS011;10328;50.042;8.238;2022-07-22T04:03:24;9.60;;;6.80;;
20340;SDS011;10328;50.042;8.238;2022-07-22T04:05:51;10.67;;;6.40;;
20340;SDS011;10328;50.042;8.238;2022-07-22T04:08:17;11.53;;;6.70;;
20340;SDS011;10328;50.042;8.238;2022-07-22T04:10:44;10.17;;;7.17;;
20340;SDS011;10328;50.042;8.238;2022-07-22T04:13:11;10.53;;;6.83;;
20340;SDS011;10328;50.042;8.238;2022-07-22T04:15:38;9.60;;;6.50;;
20340;SDS011;10328;50.042;8.238;2022-07-22T04:18:05;9.90;;;6.67;;
20340;SDS011;10328;50.042;8.238;2022-07-22T04:20:31;9.43;;;6.50;;
20340;SDS011;10328;50.042;8.238;2022-07-22T04:22:58;10.57;;;6.90;;
20340;SDS011;10328;50.042;8.238;2022-07-22T04:25:25;8.50;;;6.23;;
20340;SDS011;10328;50.042;8.238;2022-07-22T04:27:52;11.33;;;6.30;;
20340;SDS011;10328;50.042;8.238;2022-07-22T04:30:18;12.17;;;6.93;;
20340;SDS011;10328;50.042;8.238;2022-07-22T04:32:45;11.20;;;7.33;;
20340;SDS011;10328;50.042;8.238;2022-07-22T04:35:12;13.80;;;7.10;;
20340;SDS011;10328;50.042;8.238;2022-07-22T04:37:38;9.70;;;6.53;;
20340;SDS011;10328;50.042;8.238;2022-07-22T04:40:05;11.07;;;6.73;;
20340;SDS011;10328;50.042;8.238;2022-07-22T04:42:33;11.00;;;6.57;;
20340;SDS011;10328;50.042;8.238;2022-07-22T04:45:00;9.53;;;6.93;;
20340;SDS011;10328;50.042;8.238;2022-07-22T04:47:27;9.27;;;6.27;;
20340;SDS011;10328;50.042;8.238;2022-07-22T04:49:53;11.83;;;6.97;;
20340;SDS011;10328;50.042;8.238;2022-07-22T04:52:20;9.73;;;6.57;;
20340;SDS011;10328;50.042;8.238;2022-07-22T04:54:47;9.77;;;6.97;;
20340;SDS011;10328;50.042;8.238;2022-07-22T04:57:14;10.27;;;6.77;;
20340;SDS011;10328;50.042;8.238;2022-07-22T04:59:40;10.40;;;7.10;;
20340;SDS011;10328;50.042;8.238;2022-07-22T05:02:07;9.13;;;6.83;;
20340;SDS011;10328;50.042;8.238;2022-07-22T05:04:34;10.00;;;7.00;;
20340;SDS011;10328;50.042;8.238;2022-07-22T05:07:01;9.85;;;7.10;;
20340;SDS011;10328;50.042;8.238;2022-07-22T05:09:29;11.13;;;7.60;;
20340;SDS011;10328;50.042;8.238;2022-07-22T05:11:57;11.30;;;7.50;;
20340;SDS011;10328;50.042;8.238;2022-07-22T05:14:23;11.43;;;7.00;;
20340;SDS011;10328;50.042;8.238;2022-07-22T05:16:50;12.57;;;7.57;;
20340;SDS011;10328;50.042;8.238;2022-07-22T05:19:17;9.40;;;6.80;;
20340;SDS011;10328;50.042;8.238;2022-07-22T05:21:43;10.02;;;7.05;;
20340;SDS011;10328;50.042;8.238;2022-07-22T05:24:10;11.40;;;7.03;;
20340;SDS011;10328;50.042;8.238;2022-07-22T05:26:37;11.10;;;7.50;;
20340;SDS011;10328;50.042;8.238;2022-07-22T05:29:04;11.57;;;7.28;;
20340;SDS011;10328;50.042;8.238;2022-07-22T05:31:30;11.32;;;7.78;;
20340;SDS011;10328;50.042;8.238;2022-07-22T05:33:57;10.90;;;7.40;;
20340;SDS011;10328;50.042;8.238;2022-07-22T05:36:24;9.95;;;7.13;;
20340;SDS011;10328;50.042;8.238;2022-07-22T05:38:51;12.13;;;7.85;;
20340;SDS011;10328;50.042;8.238;2022-07-22T05:41:17;9.60;;;7.20;;
20340;SDS011;10328;50.042;8.238;2022-07-22T05:43:44;12.02;;;7.95;;
20340;SDS011;10328;50.042;8.238;2022-07-22T05:46:11;14.02;;;8.50;;
20340;SDS011;10328;50.042;8.238;2022-07-22T05:48:38;13.48;;;7.95;;
20340;SDS011;10328;50.042;8.238;2022-07-22T05:51:09;11.05;;;7.60;;
20340;SDS011;10328;50.042;8.238;2022-07-22T05:53:37;12.52;;;8.73;;
20340;SDS011;10328;50.042;8.238;2022-07-22T05:56:05;13.07;;;8.35;;
20340;SDS011;10328;50.042;8.238;2022-07-22T05:58:32;12.93;;;7.90;;
20340;SDS011;10328;50.042;8.238;2022-07-22T06:00:59;13.20;;;8.48;;
20340;SDS011;10328;50.042;8.238;2022-07-22T06:03:26;11.55;;;7.43;;
20340;SDS011;10328;50.042;8.238;2022-07-22T06:05:53;10.60;;;7.57;;
20340;SDS011;10328;50.042;8.238;2022-07-22T06:08:19;11.23;;;7.15;;
20340;SDS011;10328;50.042;8.238;2022-07-22T06:10:46;11.15;;;7.55;;
20340;SDS011;10328;50.042;8.238;2022-07-22T06:13:13;12.00;;;7.38;;
20340;SDS011;10328;50.042;8.238;2022-07-22T06:15:40;11.85;;;8.15;;
20340;SDS011;10328;50.042;8.238;2022-07-22T06:18:07;12.43;;;7.43;;
20340;SDS011;10328;50.042;8.238;2022-07-22T06:20:34;11.32;;;7.78;;
20340;SDS011;10328;50.042;8.238;2022-07-22T06:23:01;9.75;;;7.18;;
20340;SDS011;10328;50.042;8.238;2022-07-22T06:25:28;10.60;;;7.38;;
20340;SDS011;10328;50.042;8.238;2022-07-22T06:28:07;10.10;;;6.50;;
20340;SDS011;10328;50.042;8.238;2022-07-22T06:30:34;11.55;;;6.30;;
20340;SDS011;10328;50.042;8.238;2022-07-22T06:33:01;7.82;;;5.57;;
20340;SDS011;10328;50.042;8.238;2022-07-22T06:35:28;7.82;;;5.60;;
20340;SDS011;10328;50.042;8.238;2022-07-22T06:37:55;10.05;;;6.65;;
20340;SDS011;10328;50.042;8.238;2022-07-22T06:40:32;10.27;;;6.53;;
20340;SDS011;10328;50.042;8.238;2022-07-22T06:43:00;11.20;;;6.47;;
20340;SDS011;10328;50.042;8.238;2022-07-22T06:45:26;11.38;;;6.95;;
20340;SDS011;10328;50.042;8.238;2022-07-22T06:47:53;13.00;;;6.43;;
20340;SDS011;10328;50.042;8.238;2022-07-22T06:50:21;8.70;;;6.13;;
20340;SDS011;10328;50.042;8.238;2022-07-22T06:52:49;9.52;;;6.88;;
20340;SDS011;10328;50.042;8.238;2022-07-22T06:55:16;9.30;;;6.65;;
20340;SDS011;10328;50.042;8.238;2022-07-22T06:57:43;10.95;;;6.47;;
20340;SDS011;10328;50.042;8.238;2022-07-22T07:00:09;9.43;;;6.35;;
20340;SDS011;10328;50.042;8.238;2022-07-22T07:02:37;10.30;;;6.75;;
20340;SDS011;10328;50.042;8.238;2022-07-22T07:05:03;10.82;;;6.15;;
20340;SDS011;10328;50.042;8.238;2022-07-22T07:07:31;10.80;;;6.30;;
20340;SDS011;10328;50.042;8.238;2022-07-22T07:10:02;11.27;;;6.15;;
20340;SDS011;10328;50.042;8.238;2022-07-22T07:12:34;12.38;;;5.53;;
20340;SDS011;10328;50.042;8.238;2022-07-22T07:15:03;9.57;;;5.22;;
20340;SDS011;10328;50.042;8.238;2022-07-22T07:17:50;6.95;;;5.18;;
20340;SDS011;10328;50.042;8.238;2022-07-22T07:20:19;7.97;;;5.43;;
20340;SDS011;10328;50.042;8.238;2022-07-22T07:22:46;7.80;;;4.95;;
20340;SDS011;10328;50.042;8.238;2022-07-22T07:25:13;6.95;;;4.68;;
20340;SDS011;10328;50.042;8.238;2022-07-22T07:27:48;6.55;;;5.10;;
20340;SDS011;10328;50.042;8.238;2022-07-22T07:30:16;6.63;;;4.35;;
20340;SDS011;10328;50.042;8.238;2022-07-22T07:32:42;10.55;;;4.88;;
20340;SDS011;10328;50.042;8.238;2022-07-22T07:35:09;6.43;;;4.63;;
20340;SDS011;10328;50.042;8.238;2022-07-22T07:37:36;6.88;;;4.03;;
20340;SDS011;10328;50.042;8.238;2022-07-22T07:40:04;5.13;;;4.00;;
20340;SDS011;10328;50.042;8.238;2022-07-22T07:42:31;7.95;;;4.38;;
20340;SDS011;10328;50.042;8.238;2022-07-22T07:44:58;5.60;;;4.63;;
20340;SDS011;10328;50.042;8.238;2022-07-22T07:47:25;6.78;;;5.00;;
20340;SDS011;10328;50.042;8.238;2022-07-22T07:49:52;5.53;;;3.78;;
20340;SDS011;10328;50.042;8.238;2022-07-22T07:52:18;5.63;;;4.40;;
20340;SDS011;10328;50.042;8.238;2022-07-22T07:54:45;5.72;;;4.30;;
20340;SDS011;10328;50.042;8.238;2022-07-22T07:57:32;5.22;;;4.05;;
20340;SDS011;10328;50.042;8.238;2022-07-22T08:00:00;6.22;;;4.40;;
20340;SDS011;10328;50.042;8.238;2022-07-22T08:02:28;6.95;;;5.10;;
20340;SDS011;10328;50.042;8.238;2022-07-22T08:04:55;6.75;;;4.93;;
20340;SDS011;10328;50.042;8.238;2022-07-22T08:07:24;9.77;;;5.07;;
20340;SDS011;10328;50.042;8.238;2022-07-22T08:09:52;8.80;;;5.30;;
20340;SDS011;10328;50.042;8.238;2022-07-22T08:12:39;6.68;;;4.60;;
20340;SDS011;10328;50.042;8.238;2022-07-22T08:15:06;6.53;;;4.95;;
20340;SDS011;10328;50.042;8.238;2022-07-22T08:17:33;6.80;;;5.10;;
20340;SDS011;10328;50.042;8.238;2022-07-22T08:20:01;6.75;;;4.75;;
20340;SDS011;10328;50.042;8.238;2022-07-22T08:22:30;6.38;;;4.88;;
20340;SDS011;10328;50.042;8.238;2022-07-22T08:24:57;6.80;;;4.85;;
20340;SDS011;10328;50.042;8.238;2022-07-22T08:27:23;5.43;;;4.47;;
20340;SDS011;10328;50.042;8.238;2022-07-22T08:29:50;5.95;;;4.38;;
20340;SDS011;10328;50.042;8.238;2022-07-22T08:32:17;6.75;;;5.03;;
20340;SDS011;10328;50.042;8.238;2022-07-22T08:34:44;7.05;;;5.60;;
20340;SDS011;10328;50.042;8.238;2022-07-22T08:37:10;9.70;;;6.53;;
20340;SDS011;10328;50.042;8.238;2022-07-22T08:39:37;10.80;;;5.90;;
20340;SDS011;10328;50.042;8.238;2022-07-22T08:42:04;9.25;;;5.72;;
20340;SDS011;10328;50.042;8.238;2022-07-22T08:44:32;8.82;;;5.72;;
20340;SDS011;10328;50.042;8.238;2022-07-22T08:46:59;8.07;;;5.80;;
20340;SDS011;10328;50.042;8.238;2022-07-22T08:49:47;8.23;;;6.10;;
20340;SDS011;10328;50.042;8.238;2022-07-22T08:52:13;10.77;;;6.20;;
20340;SDS011;10328;50.042;8.238;2022-07-22T08:54:40;8.52;;;6.57;;
20340;SDS011;10328;50.042;8.238;2022-07-22T08:57:07;9.27;;;7.10;;
20340;SDS011;10328;50.042;8.238;2022-07-22T08:59:47;10.23;;;6.65;;
20340;SDS011;10328;50.042;8.238;2022-07-22T09:02:15;7.60;;;6.32;;
20340;SDS011;10328;50.042;8.238;2022-07-22T09:05:01;6.85;;;5.13;;
20340;SDS011;10328;50.042;8.238;2022-07-22T09:07:50;8.25;;;6.07;;
20340;SDS011;10328;50.042;8.238;2022-07-22T09:10:17;9.27;;;6.10;;
20340;SDS011;10328;50.042;8.238;2022-07-22T09:12:56;10.35;;;6.32;;
20340;SDS011;10328;50.042;8.238;2022-07-22T09:15:27;8.48;;;6.28;;
20340;SDS011;10328;50.042;8.238;2022-07-22T09:17:54;8.45;;;6.75;;
20340;SDS011;10328;50.042;8.238;2022-07-22T09:20:29;8.70;;;6.28;;
20340;SDS011;10328;50.042;8.238;2022-07-22T09:22:56;8.77;;;6.03;;
20340;SDS011;10328;50.042;8.238;2022-07-22T09:28:18;11.63;;;6.93;;
20340;SDS011;10328;50.042;8.238;2022-07-22T09:30:49;7.57;;;6.32;;
20340;SDS011;10328;50.042;8.238;2022-07-22T09:33:20;9.50;;;6.32;;
20340;SDS011;10328;50.042;8.238;2022-07-22T09:35:48;10.20;;;7.07;;
20340;SDS011;10328;50.042;8.238;2022-07-22T09:38:17;8.60;;;6.22;;
20340;SDS011;10328;50.042;8.238;2022-07-22T09:40:52;8.77;;;6.35;;
20340;SDS011;10328;50.042;8.238;2022-07-22T09:43:20;11.52;;;7.00;;
20340;SDS011;10328;50.042;8.238;2022-07-22T09:45:50;8.88;;;6.72;;
20340;SDS011;10328;50.042;8.238;2022-07-22T09:48:28;17.33;;;7.18;;
20340;SDS011;10328;50.042;8.238;2022-07-22T09:50:55;9.02;;;6.53;;
20340;SDS011;10328;50.042;8.238;2022-07-22T09:53:24;8.82;;;6.63;;
20340;SDS011;10328;50.042;8.238;2022-07-22T09:55:53;10.45;;;6.90;;
20340;SDS011;10328;50.042;8.238;2022-07-22T09:58:21;9.20;;;6.20;;
20340;SDS011;10328;50.042;8.238;2022-07-22T10:00:47;9.68;;;6.93;;
20340;SDS011;10328;50.042;8.238;2022-07-22T10:03:34;8.68;;;6.25;;
20340;SDS011;10328;50.042;8.238;2022-07-22T10:06:04;9.48;;;6.13;;
20340;SDS011;10328;50.042;8.238;2022-07-22T10:08:31;10.60;;;6.97;;
20340;SDS011;10328;50.042;8.238;2022-07-22T10:11:00;8.32;;;6.57;;
20340;SDS011;10328;50.042;8.238;2022-07-22T10:13:32;10.40;;;6.53;;
20340;SDS011;10328;50.042;8.238;2022-07-22T10:16:00;8.30;;;7.18;;
20340;SDS011;10328;50.042;8.238;2022-07-22T10:18:28;9.43;;;6.55;;
20340;SDS011;10328;50.042;8.238;2022-07-22T10:21:06;9.02;;;6.30;;
20340;SDS011;10328;50.042;8.238;2022-07-22T10:23:34;8.32;;;5.82;;
20340;SDS011;10328;50.042;8.238;2022-07-22T10:26:02;14.55;;;6.05;;
20340;SDS011;10328;50.042;8.238;2022-07-22T10:28:31;10.48;;;6.22;;
20340;SDS011;10328;50.042;8.238;2022-07-22T10:33:47;7.97;;;5.97;;
20340;SDS011;10328;50.042;8.238;2022-07-22T10:36:28;9.48;;;6.00;;
20340;SDS011;10328;50.042;8.238;2022-07-22T10:41:35;7.85;;;5.97;;
20340;SDS011;10328;50.042;8.238;2022-07-22T10:44:04;8.40;;;6.10;;
20340;SDS011;10328;50.042;8.238;2022-07-22T10:46:47;8.70;;;6.28;;
20340;SDS011;10328;50.042;8.238;2022-07-22T10:49:16;9.07;;;6.28;;
20340;SDS011;10328;50.042;8.238;2022-07-22T10:52:08;9.40;;;5.85;;
20340;SDS011;10328;50.042;8.238;2022-07-22T10:57:43;8.85;;;5.90;;
20340;SDS011;10328;50.042;8.238;2022-07-22T11:00:10;9.63;;;5.60;;
20340;SDS011;10328;50.042;8.238;2022-07-22T11:02:37;9.00;;;6.30;;
20340;SDS011;10328;50.042;8.238;2022-07-22T11:05:05;9.88;;;5.45;;
20340;SDS011;10328;50.042;8.238;2022-07-22T11:07:34;9.00;;;5.68;;
20340;SDS011;10328;50.042;8.238;2022-07-22T11:10:08;7.88;;;6.18;;
20340;SDS011;10328;50.042;8.238;2022-07-22T11:12:45;9.40;;;6.00;;
20340;SDS011;10328;50.042;8.238;2022-07-22T11:15:12;10.15;;;6.60;;
20340;SDS011;10328;50.042;8.238;2022-07-22T11:17:40;6.65;;;5.88;;
20340;SDS011;10328;50.042;8.238;2022-07-22T11:20:08;6.88;;;5.72;;
20340;SDS011;10328;50.042;8.238;2022-07-22T11:22:36;7.05;;;5.38;;
20340;SDS011;10328;50.042;8.238;2022-07-22T11:25:04;8.02;;;5.50;;
20340;SDS011;10328;50.042;8.238;2022-07-22T11:27:33;5.90;;;4.90;;
20340;SDS011;10328;50.042;8.238;2022-07-22T11:30:01;7.07;;;5.50;;
20340;SDS011;10328;50.042;8.238;2022-07-22T11:32:30;7.80;;;5.10;;
20340;SDS011;10328;50.042;8.238;2022-07-22T11:34:59;9.30;;;5.50;;
20340;SDS011;10328;50.042;8.238;2022-07-22T11:37:26;8.85;;;5.50;;
20340;SDS011;10328;50.042;8.238;2022-07-22T11:40:01;9.95;;;5.03;;
20340;SDS011;10328;50.042;8.238;2022-07-22T11:42:32;10.00;;;5.43;;
20340;SDS011;10328;50.042;8.238;2022-07-22T11:44:59;7.32;;;4.95;;
20340;SDS011;10328;50.042;8.238;2022-07-22T11:47:26;8.48;;;6.43;;
20340;SDS011;10328;50.042;8.238;2022-07-22T11:49:52;7.65;;;5.20;;
20340;SDS011;10328;50.042;8.238;2022-07-22T11:52:19;7.63;;;5.20;;
20340;SDS011;10328;50.042;8.238;2022-07-22T11:54:46;7.15;;;4.85;;
20340;SDS011;10328;50.042;8.238;2022-07-22T11:57:13;7.13;;;4.75;;
20340;SDS011;10328;50.042;8.238;2022-07-22T11:59:41;8.18;;;5.35;;
20340;SDS011;10328;50.042;8.238;2022-07-22T12:02:08;9.27;;;5.47;;
20340;SDS011;10328;50.042;8.238;2022-07-22T12:04:37;7.60;;;5.38;;
20340;SDS011;10328;50.042;8.238;2022-07-22T12:07:04;10.05;;;5.25;;
20340;SDS011;10328;50.042;8.238;2022-07-22T12:09:33;7.82;;;5.30;;
20340;SDS011;10328;50.042;8.238;2022-07-22T12:12:01;6.18;;;5.05;;
20340;SDS011;10328;50.042;8.238;2022-07-22T12:14:29;7.70;;;5.13;;
20340;SDS011;10328;50.042;8.238;2022-07-22T12:17:10;5.70;;;5.10;;
20340;SDS011;10328;50.042;8.238;2022-07-22T12:19:37;6.35;;;5.07;;
20340;SDS011;10328;50.042;8.238;2022-07-22T12:22:06;6.10;;;4.53;;
20340;SDS011;10328;50.042;8.238;2022-07-22T12:24:36;5.63;;;3.97;;
20340;SDS011;10328;50.042;8.238;2022-07-22T12:27:08;6.80;;;4.00;;
20340;SDS011;10328;50.042;8.238;2022-07-22T12:37:12;6.25;;;4.25;;
20340;SDS011;10328;50.042;8.238;2022-07-22T12:42:33;6.80;;;5.15;;
20340;SDS011;10328;50.042;8.238;2022-07-22T12:47:41;7.88;;;4.95;;
20340;SDS011;10328;50.042;8.238;2022-07-22T12:50:18;7.22;;;5.20;;
20340;SDS011;10328;50.042;8.238;2022-07-22T12:52:55;6.80;;;5.20;;
20340;SDS011;10328;50.042;8.238;2022-07-22T12:58:18;6.45;;;5.25;;
20340;SDS011;10328;50.042;8.238;2022-07-22T13:00:47;7.93;;;5.50;;
20340;SDS011;10328;50.042;8.238;2022-07-22T13:03:16;7.38;;;5.57;;
20340;SDS011;10328;50.042;8.238;2022-07-22T13:05:48;8.30;;;5.57;;
20340;SDS011;10328;50.042;8.238;2022-07-22T13:08:16;7.75;;;5.50;;
20340;SDS011;10328;50.042;8.238;2022-07-22T13:10:43;7.53;;;5.50;;
20340;SDS011;10328;50.042;8.238;2022-07-22T13:13:10;7.78;;;5.40;;
20340;SDS011;10328;50.042;8.238;2022-07-22T13:15:37;7.63;;;5.63;;
20340;SDS011;10328;50.042;8.238;2022-07-22T13:18:04;7.85;;;5.45;;
20340;SDS011;10328;50.042;8.238;2022-07-22T13:20:32;8.77;;;6.07;;
20340;SDS011;10328;50.042;8.238;2022-07-22T13:22:59;11.63;;;5.28;;
20340;SDS011;10328;50.042;8.238;2022-07-22T13:25:26;6.97;;;5.60;;
20340;SDS011;10328;50.042;8.238;2022-07-22T13:27:53;9.07;;;5.72;;
20340;SDS011;10328;50.042;8.238;2022-07-22T13:30:21;9.27;;;5.80;;
20340;SDS011;10328;50.042;8.238;2022-07-22T13:32:47;6.18;;;4.93;;
20340;SDS011;10328;50.042;8.238;2022-07-22T13:35:15;6.40;;;5.50;;
20340;SDS011;10328;50.042;8.238;2022-07-22T13:37:43;7.65;;;5.60;;
20340;SDS011;10328;50.042;8.238;2022-07-22T13:40:10;8.57;;;5.53;;
20340;SDS011;10328;50.042;8.238;2022-07-22T13:42:38;9.25;;;5.82;;
20340;SDS011;10328;50.042;8.238;2022-07-22T13:45:05;9.23;;;5.97;;
20340;SDS011;10328;50.042;8.238;2022-07-22T13:47:36;8.70;;;5.40;;
20340;SDS011;10328;50.042;8.238;2022-07-22T13:50:03;6.78;;;5.43;;
20340;SDS011;10328;50.042;8.238;2022-07-22T13:52:31;8.50;;;5.70;;
20340;SDS011;10328;50.042;8.238;2022-07-22T13:54:57;8.00;;;5.05;;
20340;SDS011;10328;50.042;8.238;2022-07-22T13:57:24;9.35;;;5.43;;
20340;SDS011;10328;50.042;8.238;2022-07-22T13:59:51;6.65;;;4.88;;
20340;SDS011;10328;50.042;8.238;2022-07-22T14:02:18;10.32;;;5.80;;
20340;SDS011;10328;50.042;8.238;2022-07-22T14:04:45;7.07;;;5.25;;
20340;SDS011;10328;50.042;8.238;2022-07-22T14:07:12;6.28;;;4.95;;
20340;SDS011;10328;50.042;8.238;2022-07-22T14:09:39;7.47;;;5.53;;
20340;SDS011;10328;50.042;8.238;2022-07-22T14:12:06;8.73;;;5.40;;
20340;SDS011;10328;50.042;8.238;2022-07-22T14:14:33;9.05;;;5.03;;
20340;SDS011;10328;50.042;8.238;2022-07-22T14:17:00;7.28;;;5.20;;
20340;SDS011;10328;50.042;8.238;2022-07-22T14:19:28;7.32;;;5.00;;
20340;SDS011;10328;50.042;8.238;2022-07-22T14:21:55;6.50;;;4.70;;
20340;SDS011;10328;50.042;8.238;2022-07-22T14:24:22;6.72;;;5.28;;
20340;SDS011;10328;50.042;8.238;2022-07-22T14:26:50;6.82;;;5.22;;
20340;SDS011;10328;50.042;8.238;2022-07-22T14:29:17;8.80;;;5.38;;
20340;SDS011;10328;50.042;8.238;2022-07-22T14:31:44;6.38;;;5.15;;
20340;SDS011;10328;50.042;8.238;2022-07-22T14:34:12;5.65;;;5.10;;
20340;SDS011;10328;50.042;8.238;2022-07-22T14:36:38;5.63;;;4.72;;
20340;SDS011;10328;50.042;8.238;2022-07-22T14:39:05;7.53;;;5.07;;
20340;SDS011;10328;50.042;8.238;2022-07-22T14:41:32;12.00;;;5.53;;
20340;SDS011;10328;50.042;8.238;2022-07-22T14:43:59;5.22;;;4.70;;
20340;SDS011;10328;50.042;8.238;2022-07-22T14:46:26;9.45;;;5.35;;
20340;SDS011;10328;50.042;8.238;2022-07-22T14:48:53;5.82;;;4.65;;
20340;SDS011;10328;50.042;8.238;2022-07-22T14:51:20;6.15;;;4.88;;
20340;SDS011;10328;50.042;8.238;2022-07-22T14:53:48;8.57;;;5.57;;
20340;SDS011;10328;50.042;8.238;2022-07-22T14:56:16;6.85;;;5.25;;
20340;SDS011;10328;50.042;8.238;2022-07-22T14:58:42;5.32;;;4.82;;
20340;SDS011;10328;50.042;8.238;2022-07-22T15:01:09;7.93;;;5.20;;
20340;SDS011;10328;50.042;8.238;2022-07-22T15:03:39;8.20;;;5.43;;
20340;SDS011;10328;50.042;8.238;2022-07-22T15:06:06;7.68;;;5.32;;
20340;SDS011;10328;50.042;8.238;2022-07-22T15:08:33;9.73;;;5.30;;
20340;SDS011;10328;50.042;8.238;2022-07-22T15:11:00;7.00;;;5.40;;
20340;SDS011;10328;50.042;8.238;2022-07-22T15:13:27;6.10;;;5.38;;
20340;SDS011;10328;50.042;8.238;2022-07-22T15:15:55;6.05;;;5.10;;